Time;durP1;ratioP1;P1;durP2;ratioP2;P2;SDS_P1;SDS_P2;PMS_P1;PMS_P2;Temp;Humidity;BMP_temperature;BMP_pressure;BME280_temperature;BME280_humidity;BME280_pressure;Samples;Min_cycle;Max_cycle;Signal;HPM_P1;HPM_P2
2021/04/29 00:00:15;;;;;;;23.95;19.60;;;;;;;17.50;69.51;100608.34;5035862;28;20072;-61
2021/04/29 00:02:43;;;;;;;24.58;20.20;;;;;;;17.49;69.59;100603.16;5055789;28;20490;-61
2021/04/29 00:05:13;;;;;;;25.27;19.60;;;;;;;17.48;69.89;100598.81;5055753;28;20048;-61
2021/04/29 00:07:42;;;;;;;24.17;19.05;;;;;;;17.46;69.77;100602.44;5055893;28;20056;-67
2021/04/29 00:10:17;;;;;;;24.27;19.63;;;;;;;17.44;70.04;100601.72;5055850;28;20064;-72
2021/04/29 00:12:43;;;;;;;23.58;19.90;;;;;;;17.43;70.37;100602.72;5055806;28;20049;-61
2021/04/29 00:15:13;;;;;;;24.17;19.85;;;;;;;17.43;70.18;100609.84;5038201;28;20045;-61
2021/04/29 00:17:39;;;;;;;23.40;19.92;;;;;;;17.42;70.45;100609.00;5035294;28;20438;-61
2021/04/29 00:20:13;;;;;;;23.48;18.75;;;;;;;17.40;70.69;100603.00;5035386;28;20045;-61
2021/04/29 00:22:39;;;;;;;23.67;20.48;;;;;;;17.41;70.75;100604.66;5035562;28;20060;-70
2021/04/29 00:25:07;;;;;;;25.42;20.08;;;;;;;17.39;70.72;100609.25;5035441;28;20045;-61
2021/04/29 00:27:33;;;;;;;24.90;20.00;;;;;;;17.38;70.51;100606.75;5035456;28;20111;-61
2021/04/29 00:29:59;;;;;;;23.42;19.80;;;;;;;17.37;70.42;100613.88;5035287;28;20442;-61
2021/04/29 00:32:26;;;;;;;26.77;20.83;;;;;;;17.37;70.92;100608.56;5035347;28;20096;-61
2021/04/29 00:34:52;;;;;;;26.90;20.35;;;;;;;17.37;70.59;100610.38;5035370;28;20052;-61
2021/04/29 00:37:18;;;;;;;24.48;19.95;;;;;;;17.35;70.82;100605.22;5035086;28;20483;-61
2021/04/29 00:39:44;;;;;;;28.10;21.25;;;;;;;17.34;70.83;100600.88;5035164;28;20049;-62
2021/04/29 00:42:10;;;;;;;26.25;21.08;;;;;;;17.34;71.16;100600.88;5035095;28;20042;-62
2021/04/29 00:44:37;;;;;;;23.23;19.83;;;;;;;17.32;70.79;100600.19;5034964;28;20049;-61
2021/04/29 00:47:03;;;;;;;27.40;20.52;;;;;;;17.31;71.12;100601.16;5034905;28;20045;-61
2021/04/29 00:49:29;;;;;;;23.45;19.63;;;;;;;17.31;71.16;100603.81;5035291;28;20046;-61
2021/04/29 00:51:55;;;;;;;23.63;19.23;;;;;;;17.30;71.31;100613.56;5035118;28;20053;-63
2021/04/29 00:54:22;;;;;;;25.08;19.63;;;;;;;17.28;71.10;100612.00;5034820;28;20049;-68
2021/04/29 00:56:49;;;;;;;23.77;19.35;;;;;;;17.28;71.33;100617.31;5034927;28;20390;-61
2021/04/29 00:59:15;;;;;;;22.95;19.23;;;;;;;17.25;71.30;100615.78;5034574;28;20050;-61
2021/04/29 01:01:41;;;;;;;23.77;19.77;;;;;;;17.22;71.33;100621.34;5034803;28;20061;-61
2021/04/29 01:04:18;;;;;;;25.00;19.90;;;;;;;17.20;71.20;100617.16;5034639;28;20556;-61
2021/04/29 01:06:58;;;;;;;23.60;18.95;;;;;;;17.14;71.23;100618.50;5034552;28;20544;-61
2021/04/29 01:09:39;;;;;;;23.08;19.25;;;;;;;17.11;71.29;100609.00;5034364;28;20080;-61
2021/04/29 01:12:10;;;;;;;26.67;21.25;;;;;;;17.13;71.12;100608.91;5034581;28;20049;-61
2021/04/29 01:14:38;;;;;;;24.60;19.75;;;;;;;17.13;71.15;100601.78;5034641;28;20516;-61
2021/04/29 01:17:05;;;;;;;26.65;20.55;;;;;;;17.15;71.27;100598.97;5034047;28;20045;-61
2021/04/29 01:19:40;;;;;;;23.40;19.88;;;;;;;17.15;71.28;100596.34;5034481;28;20045;-61
2021/04/29 01:22:08;;;;;;;25.27;20.67;;;;;;;17.17;71.53;100602.34;5034209;28;20049;-61
2021/04/29 01:24:47;;;;;;;26.90;20.52;;;;;;;17.16;71.60;100598.03;5034484;28;20046;-61
2021/04/29 01:27:15;;;;;;;28.65;22.20;;;;;;;17.16;71.65;100598.03;5034395;28;20060;-61
2021/04/29 01:29:42;;;;;;;27.48;20.70;;;;;;;17.16;71.54;100602.50;5034292;28;20111;-61
2021/04/29 01:32:09;;;;;;;27.55;21.95;;;;;;;17.14;71.47;100602.59;5034237;28;20041;-61
2021/04/29 01:34:37;;;;;;;27.00;21.35;;;;;;;17.14;71.27;100603.47;5034183;28;20061;-61
2021/04/29 01:37:05;;;;;;;26.98;21.15;;;;;;;17.16;71.25;100610.44;5033990;28;20050;-61
2021/04/29 01:39:33;;;;;;;27.05;20.80;;;;;;;17.12;71.50;100596.63;5034065;28;20065;-61
2021/04/29 01:42:00;;;;;;;26.88;21.88;;;;;;;17.10;71.66;100591.44;5033913;28;20072;-61
2021/04/29 01:44:28;;;;;;;29.10;22.20;;;;;;;17.09;71.33;100596.88;5034070;28;20072;-61
2021/04/29 01:46:57;;;;;;;26.88;20.80;;;;;;;17.08;71.27;100601.34;5033996;28;20449;-61
2021/04/29 01:49:25;;;;;;;27.88;21.50;;;;;;;17.06;71.34;100618.34;5033230;28;20049;-61
2021/04/29 01:51:52;;;;;;;27.70;22.38;;;;;;;16.98;71.18;100616.38;5033954;28;20410;-61
2021/04/29 01:54:20;;;;;;;28.95;22.50;;;;;;;16.95;71.72;100619.25;5033679;28;20545;-61
2021/04/29 01:56:47;;;;;;;27.25;22.80;;;;;;;16.93;71.63;100616.75;5033695;28;20049;-61
2021/04/29 01:59:14;;;;;;;26.92;21.65;;;;;;;16.95;71.79;100611.31;5033462;28;20054;-69
2021/04/29 02:01:42;;;;;;;27.23;21.52;;;;;;;16.96;72.04;100610.34;5033885;28;20099;-61
2021/04/29 02:04:10;;;;;;;27.02;22.45;;;;;;;16.98;71.93;100608.41;5033567;28;20049;-62
2021/04/29 02:06:38;;;;;;;29.30;22.17;;;;;;;16.98;72.07;100611.06;5033601;28;20046;-61
2021/04/29 02:09:06;;;;;;;27.58;21.80;;;;;;;16.98;72.31;100606.59;5033346;28;20406;-61
2021/04/29 02:11:36;;;;;;;29.65;23.77;;;;;;;16.99;72.21;100607.44;5033488;28;20096;-61
2021/04/29 02:14:05;;;;;;;28.70;22.48;;;;;;;16.98;72.50;100603.94;5033399;28;20555;-61
2021/04/29 02:16:37;;;;;;;30.33;24.33;;;;;;;16.98;72.43;100606.59;5033430;28;20061;-61
2021/04/29 02:19:05;;;;;;;28.63;22.85;;;;;;;16.98;72.62;100597.81;5033279;28;20053;-61
2021/04/29 02:21:33;;;;;;;30.08;24.27;;;;;;;16.96;72.55;100600.59;5032617;28;20391;-61
2021/04/29 02:24:01;;;;;;;29.88;23.67;;;;;;;16.96;72.68;100599.75;5033123;28;20051;-61
2021/04/29 02:26:28;;;;;;;29.25;24.67;;;;;;;16.95;72.40;100598.91;5033232;28;20064;-61
2021/04/29 02:28:55;;;;;;;28.65;24.67;;;;;;;16.94;72.34;100607.00;5033021;28;20049;-61
2021/04/29 02:31:23;;;;;;;31.85;24.42;;;;;;;16.93;72.56;100600.84;5032986;28;20049;-63
2021/04/29 02:33:51;;;;;;;29.88;23.95;;;;;;;16.91;72.59;100594.84;5033078;28;20107;-72
2021/04/29 02:36:18;;;;;;;31.10;24.13;;;;;;;16.91;72.50;100601.94;5032910;28;20057;-61
2021/04/29 02:38:45;;;;;;;31.15;23.92;;;;;;;16.90;72.52;100602.88;5033047;28;20152;-61
2021/04/29 02:41:11;;;;;;;29.88;23.80;;;;;;;16.90;72.50;100593.13;5032825;28;20045;-61
2021/04/29 02:43:38;;;;;;;24.92;20.63;;;;;;;16.88;72.55;100592.41;5032863;28;20049;-61
2021/04/29 02:46:04;;;;;;;22.58;18.23;;;;;;;16.85;72.24;100587.41;5032765;28;20087;-61
2021/04/29 02:48:31;;;;;;;20.63;16.38;;;;;;;16.83;71.61;100599.94;5032870;28;20045;-61
2021/04/29 02:51:01;;;;;;;20.85;17.02;;;;;;;16.80;71.30;100590.44;5032678;28;20090;-61
2021/04/29 02:53:33;;;;;;;25.03;19.50;;;;;;;16.79;71.12;100591.41;5032800;28;20048;-60
2021/04/29 02:55:59;;;;;;;26.95;19.80;;;;;;;16.79;71.26;100590.56;5032612;28;20056;-60
2021/04/29 02:58:26;;;;;;;23.00;18.40;;;;;;;16.77;71.14;100593.34;5032646;28;20096;-61
2021/04/29 03:00:54;;;;;;;23.02;18.48;;;;;;;16.78;70.95;100600.31;5032764;28;20064;-60
2021/04/29 03:03:20;;;;;;;21.90;17.35;;;;;;;16.79;71.08;100598.53;5040001;28;20504;-60
2021/04/29 03:05:48;;;;;;;24.55;18.23;;;;;;;16.78;70.97;100602.97;5049257;28;20436;-60
2021/04/29 03:08:14;;;;;;;22.58;17.10;;;;;;;16.77;70.77;100608.41;5049052;28;20489;-60
2021/04/29 03:10:41;;;;;;;20.63;16.80;;;;;;;16.76;70.45;100609.38;5049086;28;20490;-60
2021/04/29 03:13:07;;;;;;;18.23;14.18;;;;;;;16.74;70.26;100603.38;5031714;28;20081;-61
2021/04/29 03:15:33;;;;;;;16.83;12.82;;;;;;;16.73;70.57;100606.97;5029051;28;20426;-61
2021/04/29 03:17:59;;;;;;;15.15;12.27;;;;;;;16.71;70.47;100598.31;5028840;28;20061;-61
2021/04/29 03:20:42;;;;;;;18.40;13.70;;;;;;;16.69;70.65;100597.63;5029020;28;20132;-69
2021/04/29 03:23:08;;;;;;;17.27;13.70;;;;;;;16.70;70.69;100607.25;5029049;28;20103;-61
2021/04/29 03:25:34;;;;;;;18.77;14.45;;;;;;;16.67;70.50;100613.66;5029079;28;20045;-60
2021/04/29 03:28:00;;;;;;;20.13;15.45;;;;;;;16.64;70.53;100601.47;5028973;28;20049;-60
2021/04/29 03:30:27;;;;;;;22.38;16.40;;;;;;;16.64;70.76;100616.56;5029355;28;20049;-61
2021/04/29 03:32:53;;;;;;;24.02;18.08;;;;;;;16.63;70.86;100605.13;5030621;28;20049;-65
2021/04/29 03:35:20;;;;;;;23.00;18.77;;;;;;;16.63;71.05;100617.50;5032927;28;20124;-60
2021/04/29 03:37:46;;;;;;;24.85;20.13;;;;;;;16.63;71.04;100617.50;5032830;28;20042;-70
2021/04/29 03:40:13;;;;;;;25.05;21.05;;;;;;;16.60;71.27;100615.97;5032993;28;20052;-60
2021/04/29 03:42:39;;;;;;;26.60;20.88;;;;;;;16.61;71.24;100616.81;5033171;28;20099;-61
2021/04/29 03:45:06;;;;;;;24.70;20.80;;;;;;;16.61;71.30;100624.78;5032951;28;20046;-60
2021/04/29 03:47:32;;;;;;;29.15;22.58;;;;;;;16.61;71.92;100617.66;5032289;28;20053;-61
2021/04/29 03:49:59;;;;;;;29.83;23.63;;;;;;;16.61;71.96;100612.34;5032573;28;20437;-60
2021/04/29 03:52:25;;;;;;;29.50;24.05;;;;;;;16.60;71.99;100621.25;5032837;28;20049;-69
2021/04/29 03:54:51;;;;;;;35.90;26.98;;;;;;;16.59;72.29;100618.75;5032981;28;20056;-61
2021/04/29 03:57:18;;;;;;;33.67;26.05;;;;;;;16.59;72.42;100622.22;5032396;28;20045;-70
2021/04/29 03:59:44;;;;;;;35.00;28.15;;;;;;;16.60;72.82;100617.78;5032620;28;20049;-61
2021/04/29 04:02:11;;;;;;;37.17;28.52;;;;;;;16.61;72.82;100614.19;5032442;28;20050;-61
2021/04/29 04:04:37;;;;;;;36.67;28.33;;;;;;;16.60;73.03;100615.97;5032329;28;20137;-60
2021/04/29 04:07:04;;;;;;;38.67;30.13;;;;;;;16.61;72.88;100614.19;5032388;28;20049;-60
2021/04/29 04:09:30;;;;;;;37.45;28.25;;;;;;;16.60;72.75;100618.63;5032369;28;20057;-60
2021/04/29 04:11:56;;;;;;;39.08;28.63;;;;;;;16.60;72.95;100621.25;5032561;28;20056;-60
2021/04/29 04:14:23;;;;;;;37.80;29.25;;;;;;;16.60;72.96;100621.25;5032661;28;20060;-61
2021/04/29 04:16:49;;;;;;;37.53;29.42;;;;;;;16.59;72.71;100632.00;5031979;28;20057;-68
2021/04/29 04:19:15;;;;;;;37.88;29.13;;;;;;;16.58;73.13;100631.16;5032028;28;20526;-60
2021/04/29 04:21:41;;;;;;;39.05;28.05;;;;;;;16.57;72.75;100624.19;5032195;28;20049;-60
2021/04/29 04:24:08;;;;;;;40.08;30.08;;;;;;;16.56;73.00;100622.50;5041286;28;20041;-60
2021/04/29 04:26:34;;;;;;;39.17;29.65;;;;;;;16.56;72.86;100621.66;5052043;28;20049;-60
2021/04/29 04:29:00;;;;;;;40.83;30.73;;;;;;;16.55;72.91;100634.06;5035767;28;20394;-60
2021/04/29 04:31:26;;;;;;;38.60;30.30;;;;;;;16.55;73.09;100635.88;5043297;28;20056;-60
2021/04/29 04:33:53;;;;;;;39.10;30.30;;;;;;;16.55;72.90;100641.19;5039499;28;20111;-68
2021/04/29 04:36:19;;;;;;;37.58;29.25;;;;;;;16.54;73.13;100642.97;5031868;28;20406;-60
2021/04/29 04:38:45;;;;;;;35.90;27.98;;;;;;;16.54;73.00;100650.91;5047646;28;20052;-60
2021/04/29 04:41:16;;;;;;;36.95;28.05;;;;;;;16.55;73.43;100649.13;5051381;28;20124;-61
2021/04/29 04:43:42;;;;;;;37.65;27.80;;;;;;;16.54;73.23;100655.38;5050295;28;20483;-60
2021/04/29 04:46:08;;;;;;;35.70;27.67;;;;;;;16.52;73.32;100646.72;5031074;28;20045;-60
2021/04/29 04:48:34;;;;;;;36.08;27.77;;;;;;;16.51;73.52;100651.19;5031479;28;20042;-60
2021/04/29 04:51:06;;;;;;;33.17;27.02;;;;;;;16.50;73.46;100646.84;5032589;28;20037;-60
2021/04/29 04:53:53;;;;;;;35.50;26.85;;;;;;;16.49;73.34;100646.03;5031621;28;20046;-59
2021/04/29 04:56:24;;;;;;;34.50;26.45;;;;;;;16.50;73.40;100662.75;5046283;28;20098;-60
2021/04/29 04:58:51;;;;;;;35.65;26.88;;;;;;;16.49;73.59;100664.56;5042300;28;20056;-69
2021/04/29 05:01:17;;;;;;;35.22;26.25;;;;;;;16.48;73.64;100665.53;5051118;28;20052;-75
2021/04/29 05:03:43;;;;;;;34.85;26.63;;;;;;;16.48;73.76;100669.97;5051172;28;20052;-66
2021/04/29 05:06:10;;;;;;;32.30;25.30;;;;;;;16.47;73.38;100674.44;5051300;28;20080;-66
2021/04/29 05:08:37;;;;;;;32.35;24.40;;;;;;;16.47;73.45;100677.09;5047475;28;20095;-65
2021/04/29 05:11:06;;;;;;;32.65;26.27;;;;;;;16.46;73.60;100671.91;5031155;28;20049;-66
2021/04/29 05:13:44;;;;;;;;;;;;;;;;;;;;;
2021/04/29 05:16:14;;;;;;;31.58;24.40;;;;;;;16.45;73.10;100667.59;5050787;28;20067;-65
2021/04/29 05:18:43;;;;;;;32.50;25.75;;;;;;;16.46;73.22;100666.63;5050575;28;20060;-67
2021/04/29 05:21:10;;;;;;;34.42;26.00;;;;;;;16.45;73.13;100670.22;5050865;28;20049;-77
2021/04/29 05:23:37;;;;;;;33.92;25.92;;;;;;;16.45;73.02;100672.88;5050121;28;20048;-67
2021/04/29 05:26:04;;;;;;;31.17;24.77;;;;;;;16.45;73.13;100659.63;5048894;28;20049;-66
2021/04/29 05:28:36;;;;;;;33.40;25.67;;;;;;;16.45;72.94;100660.47;5050994;28;20048;-66
2021/04/29 05:31:05;;;;;;;33.08;25.20;;;;;;;16.46;72.73;100663.97;5050857;28;20097;-65
2021/04/29 05:33:32;;;;;;;30.00;24.67;;;;;;;16.44;72.94;100674.69;5050665;28;20099;-65
2021/04/29 05:35:58;;;;;;;32.15;25.30;;;;;;;16.44;72.63;100679.13;5049665;28;20528;-72
2021/04/29 05:38:28;;;;;;;33.20;24.80;;;;;;;16.43;72.51;100677.44;5050541;28;20056;-65
2021/04/29 05:40:54;;;;;;;33.58;25.10;;;;;;;16.41;72.79;100672.28;5038801;28;20050;-66
2021/04/29 05:43:21;;;;;;;31.38;23.88;;;;;;;16.41;72.67;100679.41;5030764;28;20131;-65
2021/04/29 05:45:50;;;;;;;31.15;24.17;;;;;;;16.39;72.73;100678.69;5030766;28;20041;-67
2021/04/29 05:48:17;;;;;;;30.40;24.52;;;;;;;16.39;72.69;100689.28;5030734;28;20448;-65
2021/04/29 05:50:44;;;;;;;28.83;23.00;;;;;;;16.37;72.62;100688.56;5030499;28;20056;-62
2021/04/29 05:53:10;;;;;;;31.52;23.88;;;;;;;16.34;72.50;100692.31;5039650;28;20052;-63
2021/04/29 05:55:37;;;;;;;30.25;24.40;;;;;;;16.34;72.84;100684.38;5049145;28;20094;-66
2021/04/29 05:58:03;;;;;;;31.40;24.73;;;;;;;16.33;72.43;100686.16;5047656;28;20060;-63
2021/04/29 06:00:30;;;;;;;29.67;23.65;;;;;;;16.35;72.66;100683.38;5049627;28;20041;-64
2021/04/29 06:02:59;;;;;;;29.00;23.70;;;;;;;16.35;72.69;100683.38;5049741;28;20041;-63
2021/04/29 06:05:26;;;;;;;28.92;23.15;;;;;;;16.36;72.50;100685.06;5046832;28;20052;-64
2021/04/29 06:08:00;;;;;;;31.45;24.23;;;;;;;16.36;72.62;100685.06;5049879;28;20072;-62
2021/04/29 06:10:28;;;;;;;27.38;21.88;;;;;;;16.37;72.50;100686.75;5050210;28;20041;-63
2021/04/29 06:12:55;;;;;;;29.48;23.23;;;;;;;16.37;72.68;100685.94;5043797;28;20293;-62
2021/04/29 06:15:25;;;;;;;29.98;23.48;;;;;;;16.38;72.67;100687.59;5029725;28;20068;-63
2021/04/29 06:17:51;;;;;;;27.65;21.80;;;;;;;16.38;72.54;100691.09;5029728;28;20049;-62
2021/04/29 06:20:18;;;;;;;28.40;23.23;;;;;;;16.38;72.43;100691.09;5029454;28;20049;-63
2021/04/29 06:22:50;;;;;;;30.38;22.98;;;;;;;16.39;72.63;100689.28;5032111;28;20061;-62
2021/04/29 06:25:18;;;;;;;28.10;22.10;;;;;;;16.41;72.75;100690.81;5040780;28;20485;-62
2021/04/29 06:27:44;;;;;;;29.50;22.08;;;;;;;16.44;72.82;100687.94;5049289;28;20517;-63
2021/04/29 06:30:15;;;;;;;27.92;20.90;;;;;;;16.46;72.68;100686.00;5045260;28;20056;-63
2021/04/29 06:32:42;;;;;;;26.95;20.67;;;;;;;16.47;72.33;100692.97;5029665;28;20049;-62
2021/04/29 06:35:10;;;;;;;26.50;21.40;;;;;;;16.48;72.38;100699.97;5035842;28;20052;-62
2021/04/29 06:37:38;;;;;;;25.50;19.60;;;;;;;16.48;72.19;100704.41;5048256;28;20053;-76
2021/04/29 06:40:05;;;;;;;26.20;20.73;;;;;;;16.47;72.20;100705.38;5046121;28;20045;-62
2021/04/29 06:42:32;;;;;;;26.10;20.25;;;;;;;16.46;72.12;100712.47;5048660;28;20056;-62
2021/04/29 06:44:59;;;;;;;22.65;18.60;;;;;;;16.46;72.24;100714.28;5047247;28;20040;-63
2021/04/29 06:47:31;;;;;;;22.02;17.80;;;;;;;16.45;72.36;100724.03;5037426;28;20057;-63
2021/04/29 06:49:58;;;;;;;23.83;18.65;;;;;;;16.45;72.35;100720.56;5045878;28;20061;-63
2021/04/29 06:52:24;;;;;;;23.65;18.55;;;;;;;16.44;72.30;100729.47;5048745;28;20052;-63
2021/04/29 06:55:12;;;;;;;24.35;18.88;;;;;;;16.43;72.17;100733.06;5049122;28;20040;-63
2021/04/29 06:57:39;;;;;;;24.75;18.92;;;;;;;16.43;72.38;100733.06;5027753;28;20093;-63
2021/04/29 07:00:06;;;;;;;25.20;19.23;;;;;;;16.42;72.12;100728.75;5048814;28;20080;-62
2021/04/29 07:02:38;;;;;;;24.77;19.05;;;;;;;16.44;72.01;100738.25;5045679;28;20458;-62
2021/04/29 07:05:06;;;;;;;24.40;19.15;;;;;;;16.46;72.14;100735.47;5048317;28;20813;-62
2021/04/29 07:07:32;;;;;;;25.48;19.35;;;;;;;16.48;72.12;100734.41;5048369;28;20088;-64
2021/04/29 07:09:59;;;;;;;26.15;18.35;;;;;;;16.52;72.06;100742.06;5048132;28;20512;-63
2021/04/29 07:12:25;;;;;;;26.33;18.83;;;;;;;16.54;71.71;100742.81;5048516;28;20052;-63
2021/04/29 07:14:52;;;;;;;24.38;18.33;;;;;;;16.54;71.91;100745.44;5048220;28;20509;-63
2021/04/29 07:17:18;;;;;;;23.55;18.50;;;;;;;16.55;71.74;100745.31;5042312;28;20045;-63
2021/04/29 07:19:45;;;;;;;24.95;18.63;;;;;;;16.54;71.90;100742.81;5028961;28;20521;-64
2021/04/29 07:22:11;;;;;;;24.60;19.13;;;;;;;16.54;71.75;100748.94;5028347;28;20041;-63
2021/04/29 07:24:38;;;;;;;22.63;17.98;;;;;;;16.53;71.84;100749.06;5028763;28;20045;-71
2021/04/29 07:27:04;;;;;;;23.85;18.30;;;;;;;16.54;71.71;100745.44;5028476;28;20103;-63
2021/04/29 07:29:32;;;;;;;21.90;17.67;;;;;;;16.54;71.86;100746.28;5042334;28;20132;-63
2021/04/29 07:32:00;;;;;;;23.60;18.00;;;;;;;16.57;71.77;100751.34;5048190;28;20049;-63
2021/04/29 07:34:27;;;;;;;24.55;18.80;;;;;;;16.57;71.74;100758.44;5040958;28;20464;-63
2021/04/29 07:36:56;;;;;;;25.58;19.25;;;;;;;16.58;71.93;100755.69;5031843;28;20520;-62
2021/04/29 07:39:23;;;;;;;26.08;19.45;;;;;;;16.58;72.43;100749.53;5035102;28;20057;-63
2021/04/29 07:41:50;;;;;;;23.63;18.60;;;;;;;16.59;72.42;100746.75;5028069;28;20049;-62
2021/04/29 07:52:42;;;;;;;20.77;17.08;;;;;;;16.69;72.39;100738.88;5047471;28;20570;-63
2021/04/29 07:55:12;;;;;;;20.88;17.08;;;;;;;16.74;72.20;100734.03;5039042;28;20147;-62
2021/04/29 07:57:41;;;;;;;22.48;18.10;;;;;;;16.75;72.19;100726.94;5027772;28;20046;-62
2021/04/29 08:00:14;;;;;;;21.77;17.88;;;;;;;16.75;72.23;100722.47;5027674;28;20584;-62
2021/04/29 08:02:43;;;;;;;21.70;17.55;;;;;;;16.79;72.02;100721.25;5028295;28;20445;-62
2021/04/29 08:05:11;;;;;;;21.92;17.85;;;;;;;16.83;71.98;100723.66;5027594;28;20049;-62
2021/04/29 08:07:40;;;;;;;21.70;17.20;;;;;;;16.88;71.67;100724.13;5027335;28;20088;-62
2021/04/29 08:10:09;;;;;;;18.95;15.35;;;;;;;16.92;71.71;100729.03;5027808;28;20142;-63
2021/04/29 08:13:14;;;;;;;;;;;;;;;;;;;;;
2021/04/29 08:15:42;;;;;;;19.83;14.65;;;;;;;16.98;71.05;100733.00;5026583;28;20494;-62
2021/04/29 08:18:09;;;;;;;17.20;13.13;;;;;;;16.97;71.21;100741.91;5035267;28;20045;-62
2021/04/29 08:20:40;;;;;;;16.88;12.80;;;;;;;16.96;71.01;100745.53;5049947;28;20405;-62
2021/04/29 08:23:06;;;;;;;15.10;11.60;;;;;;;16.93;70.73;100743.97;5051356;28;20049;-63
2021/04/29 08:25:36;;;;;;;13.55;11.55;;;;;;;16.92;70.87;100744.13;5051146;28;20477;-62
2021/04/29 08:28:03;;;;;;;16.15;11.93;;;;;;;16.91;70.40;100753.03;5051386;28;20045;-70
2021/04/29 08:30:30;;;;;;;13.88;11.20;;;;;;;16.91;70.69;100760.97;5041441;28;20041;-62
2021/04/29 08:33:02;;;;;;;16.13;11.70;;;;;;;16.90;70.40;100765.44;5031309;28;20041;-62
2021/04/29 08:35:29;;;;;;;14.20;11.43;;;;;;;16.90;70.62;100767.22;5031027;28;20052;-62
2021/04/29 08:38:16;;;;;;;13.88;10.27;;;;;;;16.90;70.70;100764.56;5062994;28;20053;-62
2021/04/29 08:40:48;;;;;;;15.10;10.85;;;;;;;16.90;71.06;100768.06;5033900;28;20098;-62
2021/04/29 08:43:17;;;;;;;12.52;10.55;;;;;;;16.91;70.69;100768.94;5030656;28;20042;-63
2021/04/29 08:45:44;;;;;;;13.52;11.40;;;;;;;16.89;70.70;100766.38;5031263;28;20055;-62
2021/04/29 08:52:03;;;;;;;14.55;10.93;;;;;;;16.91;70.48;100769.78;4989634;28;20054;-62
2021/04/29 08:54:36;;;;;;;15.30;11.30;;;;;;;16.93;70.79;100769.66;5032412;28;20046;-62
2021/04/29 08:57:14;;;;;;;15.40;11.68;;;;;;;16.94;70.66;100768.69;5045449;28;20084;-63
2021/04/29 08:59:44;;;;;;;14.13;11.15;;;;;;;16.94;70.37;100766.88;5048099;28;20053;-62
2021/04/29 09:02:11;;;;;;;13.27;10.55;;;;;;;16.94;70.27;100774.81;5030789;28;20052;-62
2021/04/29 09:04:47;;;;;;;13.00;8.88;;;;;;;16.93;70.12;100777.63;5042413;28;20056;-62
2021/04/29 09:07:27;;;;;;;;;;;;;;;16.95;69.67;100775.66;5031801;28;20058;-69
2021/04/29 09:10:43;;;;;;;;;;;;;;;16.97;69.87;100785.16;5042682;28;19939;-75
2021/04/29 09:13:26;;;;;;;11.98;9.57;;;;;;;17.02;69.74;100776.84;5049976;28;19920;-74
2021/04/29 09:15:52;;;;;;;12.55;10.13;;;;;;;17.07;69.82;100785.25;5050967;28;20063;-62
2021/04/29 09:18:20;;;;;;;12.95;10.05;;;;;;;17.13;69.61;100779.44;5050060;28;20056;-72
2021/04/29 09:20:57;;;;;;;12.38;10.15;;;;;;;17.24;69.34;100781.19;5050521;28;20477;-63
2021/04/29 09:23:25;;;;;;;11.85;9.80;;;;;;;17.33;69.36;100781.38;5031747;28;20053;-75
2021/04/29 09:25:57;;;;;;;12.23;9.88;;;;;;;17.44;69.08;100784.78;5030827;28;20041;-75
2021/04/29 09:28:56;;;;;;;10.80;9.48;;;;;;;17.63;68.67;100780.56;5045151;28;20084;-79
2021/04/29 09:31:24;;;;;;;12.98;10.25;;;;;;;17.76;68.45;100777.69;5028124;28;20096;-76
2021/04/29 09:33:55;;;;;;;12.73;9.40;;;;;;;17.88;68.25;100778.44;5030110;28;20100;-75
2021/04/29 09:36:25;;;;;;;11.25;8.93;;;;;;;17.99;67.60;100775.72;5030218;28;20500;-77
2021/04/29 09:39:05;;;;;;;6.65;5.32;;;;;;;18.05;67.59;100775.16;5045739;28;20049;-72
2021/04/29 09:41:37;;;;;;;8.82;5.90;;;;;;;18.12;67.03;100780.81;5050320;28;20072;-72
2021/04/29 09:44:07;;;;;;;9.93;6.82;;;;;;;18.11;66.38;100774.63;5048968;28;20048;-73
2021/04/29 09:46:41;;;;;;;11.85;10.10;;;;;;;18.10;65.71;100766.81;5044938;28;20052;-69
2021/04/29 09:49:27;;;;;;;11.77;10.57;;;;;;;18.02;65.57;100764.84;5034861;28;20052;-66
2021/04/29 09:51:54;;;;;;;14.00;10.27;;;;;;;17.95;65.81;100766.34;5033775;28;20049;-68
2021/04/29 09:54:28;;;;;;;14.13;11.32;;;;;;;17.87;65.66;100766.97;5032993;28;20042;-64
2021/04/29 09:57:00;;;;;;;14.90;11.40;;;;;;;17.82;66.18;100763.88;5029847;28;20057;-64
2021/04/29 09:59:31;;;;;;;15.15;11.48;;;;;;;17.77;66.52;100758.13;5029877;28;20576;-63
2021/04/29 10:01:58;;;;;;;13.50;11.48;;;;;;;17.71;66.67;100762.19;5030074;28;20072;-64
2021/04/29 10:04:28;;;;;;;16.85;13.40;;;;;;;17.68;67.00;100766.91;5029842;28;20458;-71
2021/04/29 10:06:55;;;;;;;15.13;11.75;;;;;;;17.64;66.62;100761.03;5029813;28;20053;-63
2021/04/29 10:09:28;;;;;;;16.15;12.35;;;;;;;17.62;67.18;100763.81;5032991;28;20045;-63
2021/04/29 10:12:10;;;;;;;15.32;12.07;;;;;;;17.64;67.26;100768.97;5033124;28;20536;-63
2021/04/29 10:14:43;;;;;;;14.90;12.43;;;;;;;17.64;67.21;100761.03;5044559;28;20063;-63
2021/04/29 10:17:12;;;;;;;16.70;13.18;;;;;;;17.64;67.10;100758.38;5041046;28;20111;-68
2021/04/29 10:19:42;;;;;;;15.18;12.32;;;;;;;17.67;67.01;100765.22;5030853;28;20084;-65
2021/04/29 10:22:10;;;;;;;9.13;6.65;;;;;;;17.74;67.15;100764.56;5029321;28;20045;-67
2021/04/29 10:24:39;;;;;;;10.38;7.38;;;;;;;17.83;66.61;100762.09;5029738;28;20049;-68
2021/04/29 10:27:08;;;;;;;10.20;7.15;;;;;;;17.87;66.56;100766.16;5029266;28;20053;-71
2021/04/29 10:29:34;;;;;;;9.05;6.13;;;;;;;17.92;65.89;100764.75;5029481;28;20053;-67
2021/04/29 10:32:03;;;;;;;13.10;10.10;;;;;;;17.94;65.71;100759.34;5029408;28;20046;-66
2021/04/29 10:34:44;;;;;;;10.60;8.50;;;;;;;17.94;65.57;100765.50;5029236;28;20512;-66
2021/04/29 10:37:19;;;;;;;10.75;7.22;;;;;;;17.93;65.46;100770.94;5029235;28;20136;-68
2021/04/29 10:40:01;;;;;;;18.37;12.40;;;;;;;17.88;66.17;100768.66;5042432;28;20063;-64
2021/04/29 10:42:29;;;;;;;14.98;12.23;;;;;;;17.81;66.14;100761.38;5039944;28;20517;-71
2021/04/29 10:45:07;;;;;;;15.52;12.77;;;;;;;17.73;66.49;100765.53;5038910;28;20489;-64
2021/04/29 10:47:35;;;;;;;15.63;12.65;;;;;;;17.69;66.83;100757.97;5029311;28;20047;-66
2021/04/29 10:50:20;;;;;;;15.25;12.30;;;;;;;17.66;67.33;100755.56;5037723;28;20594;-64
2021/04/29 10:52:50;;;;;;;16.73;12.25;;;;;;;17.63;67.38;100751.38;5048503;28;20110;-75
2021/04/29 10:55:33;;;;;;;18.10;13.57;;;;;;;17.61;67.34;100758.63;5047752;28;20052;-68
2021/04/29 10:58:00;;;;;;;15.95;12.80;;;;;;;17.59;67.52;100758.75;5047751;28;20048;-64
2021/04/29 11:00:31;;;;;;;16.95;13.57;;;;;;;17.59;68.01;100757.94;5036311;28;20049;-73
2021/04/29 11:02:58;;;;;;;16.60;12.77;;;;;;;17.58;68.23;100757.06;5028957;28;20049;-65
2021/04/29 11:05:26;;;;;;;15.70;12.35;;;;;;;17.56;68.66;100763.47;5027858;28;20060;-70
2021/04/29 11:07:53;;;;;;;15.75;11.77;;;;;;;17.55;68.70;100761.81;5030264;28;20056;-65
2021/04/29 11:10:22;;;;;;;15.20;11.25;;;;;;;17.58;68.21;100758.91;5032866;28;20794;-73
2021/04/29 11:12:56;;;;;;;16.73;11.82;;;;;;;17.58;68.13;100758.91;5039174;28;20053;-63
2021/04/29 11:15:38;;;;;;;13.65;12.10;;;;;;;17.56;68.31;100764.34;5036622;28;20053;-66
2021/04/29 11:18:12;;;;;;;13.52;11.82;;;;;;;17.54;68.11;100770.75;5033506;28;20041;-61
2021/04/29 11:20:57;;;;;;;15.30;11.60;;;;;;;17.53;68.28;100764.59;5045860;28;20417;-63
2021/04/29 11:23:48;;;;;;;14.57;11.88;;;;;;;17.52;68.27;100767.38;5034225;28;20056;-62
2021/04/29 11:26:17;;;;;;;15.43;12.07;;;;;;;17.52;68.56;100765.59;5028970;28;20052;-62
2021/04/29 11:28:44;;;;;;;14.48;11.70;;;;;;;17.51;68.60;100763.03;5029525;28;20045;-62
2021/04/29 11:31:11;;;;;;;15.30;12.38;;;;;;;17.50;68.54;100756.91;5029804;28;20041;-61
2021/04/29 11:33:39;;;;;;;18.48;12.48;;;;;;;17.53;68.67;100758.44;5033897;28;20056;-64